Time;durP1;ratioP1;P1;durP2;ratioP2;P2;SDS_P1;SDS_P2;PMS_P1;PMS_P2;Temp;Humidity;BMP_temperature;BMP_pressure;BME280_temperature;BME280_humidity;BME280_pressure;Samples;Min_cycle;Max_cycle;Signal;HPM_P1;HPM_P2
2022/06/04 00:00:20;;;;;;;6.38;4.85;;;;;;;16.42;100.00;96204.91;5011311;28;20064;-78
2022/06/04 00:02:47;;;;;;;7.87;5.17;;;;;;;16.40;100.00;96201.66;5027565;28;20071;-78
2022/06/04 00:05:15;;;;;;;7.18;4.97;;;;;;;16.35;100.00;96209.38;5000783;28;20034;-78
2022/06/04 00:07:41;;;;;;;9.65;4.70;;;;;;;16.39;100.00;96206.13;5004659;28;20022;-78
2022/06/04 00:15:48;;;;;;;7.70;5.40;;;;;;;16.33;100.00;96198.97;5005433;28;20034;-78
2022/06/04 00:18:14;;;;;;;9.40;5.05;;;;;;;16.42;100.00;96197.75;4996531;28;20424;-78
2022/06/04 00:20:40;;;;;;;8.80;4.65;;;;;;;16.39;100.00;96202.66;5019182;28;20025;-81
2022/06/04 00:23:08;;;;;;;10.00;4.88;;;;;;;16.29;100.00;96197.69;5017223;28;20129;-78
2022/06/04 00:25:36;;;;;;;8.50;4.68;;;;;;;16.23;100.00;96209.94;5013335;28;20048;-78
2022/06/04 00:28:06;;;;;;;7.78;4.72;;;;;;;16.31;100.00;96214.25;4993599;28;20033;-78
2022/06/04 00:30:32;;;;;;;6.75;4.85;;;;;;;16.26;100.00;96219.31;4977443;28;20033;-78
2022/06/04 00:32:58;;;;;;;9.27;5.03;;;;;;;16.23;100.00;96222.34;4988135;28;20484;-79
2022/06/04 00:35:25;;;;;;;7.95;5.45;;;;;;;16.19;100.00;96229.06;5007048;28;20033;-79
2022/06/04 00:37:51;;;;;;;7.95;4.80;;;;;;;16.16;100.00;96227.66;4998801;28;20121;-78
2022/06/04 00:40:43;;;;;;;6.40;4.10;;;;;;;16.22;100.00;96221.53;5033567;28;20127;-81
2022/06/04 00:43:10;;;;;;;4.93;3.37;;;;;;;16.23;100.00;96227.66;5010020;28;20037;-78
2022/06/04 00:45:36;;;;;;;7.70;4.90;;;;;;;16.22;100.00;96226.03;5006851;28;20628;-78
2022/06/04 00:48:09;;;;;;;5.88;4.13;;;;;;;16.22;100.00;96226.84;5027147;28;20141;-78
2022/06/04 00:50:38;;;;;;;5.72;4.15;;;;;;;16.18;100.00;96215.00;5028044;28;20037;-78
2022/06/04 00:53:08;;;;;;;6.47;4.40;;;;;;;16.22;100.00;96223.38;5026664;28;20457;-77
2022/06/04 00:55:55;;;;;;;6.65;3.83;;;;;;;16.18;100.00;96215.00;5012806;28;20042;-78
2022/06/04 00:58:37;;;;;;;6.07;4.22;;;;;;;16.22;100.00;96226.84;4997842;28;20112;-78
2022/06/04 01:01:24;;;;;;;6.67;4.03;;;;;;;16.20;100.00;96223.59;5006068;28;20044;-78
2022/06/04 01:04:08;;;;;;;5.88;3.78;;;;;;;16.05;100.00;96222.84;5017045;28;20109;-78
2022/06/04 01:06:54;;;;;;;7.15;4.05;;;;;;;16.13;100.00;96216.56;4999160;28;20040;-78
2022/06/04 01:09:29;;;;;;;5.95;3.58;;;;;;;16.15;100.00;96218.03;5007951;28;20836;-78
2022/06/04 01:12:27;;;;;;;8.65;4.43;;;;;;;16.14;100.00;96215.59;5008094;28;20129;-78
2022/06/04 01:14:58;;;;;;;6.65;4.15;;;;;;;16.14;100.00;96224.34;5024693;28;20137;-78
2022/06/04 01:17:51;;;;;;;5.82;3.90;;;;;;;16.08;100.00;96217.16;5016324;28;20402;-78
2022/06/04 01:20:45;;;;;;;8.18;4.47;;;;;;;15.95;100.00;96215.25;5009576;28;20125;-79
2022/06/04 01:23:38;;;;;;;7.70;4.45;;;;;;;15.92;100.00;96202.34;5010977;28;20077;-79
2022/06/04 01:26:07;;;;;;;5.85;3.97;;;;;;;16.00;100.00;96202.22;5028498;28;20100;-78
2022/06/04 01:28:42;;;;;;;6.97;4.38;;;;;;;15.99;100.00;96200.56;5005429;28;20022;-78
2022/06/04 01:31:12;;;;;;;6.20;4.25;;;;;;;15.92;100.00;96201.53;5015340;28;20677;-78
2022/06/04 01:33:42;;;;;;;7.97;4.55;;;;;;;15.75;100.00;96204.47;5016662;28;20072;-81
2022/06/04 01:36:19;;;;;;;6.95;4.93;;;;;;;15.65;100.00;96198.66;5018112;28;20065;-79
2022/06/04 01:38:58;;;;;;;8.05;5.03;;;;;;;15.72;100.00;96204.03;5009507;28;20034;-79
2022/06/04 01:41:38;;;;;;;7.97;4.40;;;;;;;15.67;100.00;96201.97;5018453;28;20546;-78
2022/06/04 01:44:12;;;;;;;7.32;4.85;;;;;;;15.67;100.00;96190.56;5001210;28;20038;-78
2022/06/04 01:46:48;;;;;;;6.30;4.53;;;;;;;15.70;100.00;96195.47;5026490;28;20597;-78
2022/06/04 01:49:22;;;;;;;6.60;4.47;;;;;;;15.70;100.00;96204.25;4999391;28;20038;-79
2022/06/04 01:51:52;;;;;;;6.13;4.30;;;;;;;15.71;100.00;96197.94;5000055;28;20033;-78
2022/06/04 01:54:28;;;;;;;8.20;4.78;;;;;;;15.68;100.00;96203.59;5004160;28;20503;-78
2022/06/04 01:57:09;;;;;;;8.15;5.10;;;;;;;15.55;100.00;96198.16;5012004;28;20026;-78
2022/06/04 01:59:40;;;;;;;7.68;4.90;;;;;;;15.55;100.00;96198.97;5003394;28;20034;-78
2022/06/04 02:02:12;;;;;;;7.35;4.53;;;;;;;15.55;100.00;96198.97;5002798;28;20045;-79
2022/06/04 02:04:43;;;;;;;7.32;4.82;;;;;;;15.51;100.00;96204.88;5011399;28;20026;-78
2022/06/04 02:07:30;;;;;;;9.02;5.00;;;;;;;15.57;100.00;96196.97;5010930;28;20045;-78
2022/06/04 02:10:01;;;;;;;7.32;4.80;;;;;;;15.59;100.00;96207.38;5028221;28;20037;-79
2022/06/04 02:12:28;;;;;;;5.80;4.70;;;;;;;15.59;100.00;96204.72;5012174;28;20092;-77
2022/06/04 02:14:54;;;;;;;7.80;4.97;;;;;;;15.61;100.00;96197.41;5012456;28;20044;-78
2022/06/04 02:17:24;;;;;;;7.07;4.53;;;;;;;15.56;100.00;96199.81;5011473;28;20034;-78
2022/06/04 02:19:50;;;;;;;6.63;4.90;;;;;;;15.60;100.00;96205.56;5015402;28;20029;-78
2022/06/04 02:22:16;;;;;;;8.85;5.38;;;;;;;15.55;100.00;96209.59;5011834;28;20040;-78
2022/06/04 02:24:43;;;;;;;7.55;5.30;;;;;;;15.45;100.00;96205.63;5013568;28;20041;-77
2022/06/04 02:27:09;;;;;;;7.28;5.18;;;;;;;15.47;100.00;96206.25;4997906;28;20509;-80
2022/06/04 02:29:44;;;;;;;7.55;4.80;;;;;;;15.48;100.00;96202.59;5018017;28;20726;-78
2022/06/04 02:32:36;;;;;;;6.57;4.97;;;;;;;15.44;100.00;96202.16;5023610;28;20044;-79
2022/06/04 02:35:04;;;;;;;10.52;5.55;;;;;;;15.29;100.00;96191.63;5010655;28;20108;-78
2022/06/04 02:37:53;;;;;;;6.90;5.32;;;;;;;15.22;100.00;96188.09;5023601;28;20049;-78
2022/06/04 02:40:31;;;;;;;6.93;4.68;;;;;;;15.06;100.00;96198.94;5008651;28;20030;-78
2022/06/04 02:43:20;;;;;;;8.02;5.50;;;;;;;14.98;100.00;96201.69;5006747;28;20084;-78
2022/06/04 02:45:57;;;;;;;8.63;5.50;;;;;;;14.97;100.00;96195.59;5013997;28;20071;-81
2022/06/04 02:48:29;;;;;;;9.73;5.30;;;;;;;14.93;100.00;96198.81;4995823;28;20034;-78
2022/06/04 02:51:02;;;;;;;7.55;5.40;;;;;;;14.90;100.00;96194.69;4995247;28;20030;-78
2022/06/04 02:53:31;;;;;;;8.65;5.30;;;;;;;14.85;100.00;96189.97;5019409;28;20041;-78
2022/06/04 02:56:02;;;;;;;8.73;5.03;;;;;;;14.88;100.00;96188.75;5011828;28;20038;-78
2022/06/04 02:58:31;;;;;;;7.82;5.40;;;;;;;14.88;100.00;96187.94;5000982;28;20032;-78
2022/06/04 03:00:59;;;;;;;10.00;5.67;;;;;;;14.89;100.00;96192.22;5010861;28;20037;-79
2022/06/04 03:03:25;;;;;;;8.77;5.70;;;;;;;14.82;100.00;96195.63;5002450;28;20030;-78
2022/06/04 03:06:00;;;;;;;7.57;5.60;;;;;;;14.77;100.00;96211.25;5000971;28;20392;-77
2022/06/04 03:08:27;;;;;;;7.77;5.33;;;;;;;14.84;100.00;96200.72;5008280;28;20026;-78
2022/06/04 03:10:53;;;;;;;8.47;5.23;;;;;;;14.81;100.00;96211.69;5021680;28;20117;-78
2022/06/04 03:13:20;;;;;;;9.13;5.47;;;;;;;14.83;100.00;96217.63;5010149;28;20081;-78
2022/06/04 03:15:46;;;;;;;8.00;6.20;;;;;;;14.84;100.00;96217.44;5021026;28;20041;-78
2022/06/04 03:18:13;;;;;;;7.67;5.33;;;;;;;14.90;100.00;96209.78;5000739;28;20044;-79
2022/06/04 03:20:39;;;;;;;8.87;5.60;;;;;;;14.82;100.00;96208.88;4995769;28;20045;-78
2022/06/04 03:23:06;;;;;;;7.40;5.20;;;;;;;14.72;100.00;96210.16;4996982;28;20034;-78
2022/06/04 03:25:33;;;;;;;7.97;5.63;;;;;;;14.64;100.00;96210.28;5014330;28;20184;-78
2022/06/04 03:28:00;;;;;;;7.50;5.70;;;;;;;14.60;100.00;96221.22;5004486;28;20385;-78
2022/06/04 03:30:26;;;;;;;7.90;5.40;;;;;;;14.57;100.00;96228.72;5008375;28;20022;-78
2022/06/04 03:32:53;;;;;;;8.10;5.03;;;;;;;14.56;100.00;96219.16;5016014;28;20037;-78
2022/06/04 03:35:19;;;;;;;9.47;5.97;;;;;;;14.57;100.00;96221.59;5012964;28;20499;-78
2022/06/04 03:37:44;;;;;;;8.73;5.60;;;;;;;14.64;100.00;96215.56;5022951;28;20128;-78
2022/06/04 03:40:11;;;;;;;7.77;5.60;;;;;;;14.70;100.00;96214.84;5024675;28;20514;-78
2022/06/04 03:42:37;;;;;;;7.53;5.63;;;;;;;14.54;100.00;96205.25;5023483;28;20100;-78
2022/06/04 03:45:05;;;;;;;6.77;5.10;;;;;;;14.56;100.00;96212.03;5002724;28;20037;-80
2022/06/04 03:47:36;;;;;;;8.10;5.17;;;;;;;14.69;100.00;96207.88;5023738;28;20041;-78
2022/06/04 03:50:16;;;;;;;9.63;5.37;;;;;;;14.77;100.00;96211.25;5010074;28;20053;-78
2022/06/04 03:52:43;;;;;;;8.30;6.90;;;;;;;14.66;100.00;96214.38;5026074;28;20043;-78
2022/06/04 03:55:10;;;;;;;10.17;6.90;;;;;;;14.69;100.00;96213.16;5006841;28;20040;-78
2022/06/04 03:57:38;;;;;;;11.70;7.73;;;;;;;14.57;100.00;96210.19;5003199;28;20499;-78
2022/06/04 04:00:07;;;;;;;8.90;6.97;;;;;;;14.48;100.00;96216.53;5005672;28;20030;-78
2022/06/04 04:02:43;;;;;;;8.77;7.00;;;;;;;14.60;100.00;96215.13;5012617;28;20022;-79
2022/06/04 04:05:11;;;;;;;10.57;7.73;;;;;;;14.73;100.00;96219.75;5024171;28;20037;-78
2022/06/04 04:07:38;;;;;;;8.77;6.50;;;;;;;14.87;100.00;96224.19;5007781;28;20037;-79
2022/06/04 04:10:05;;;;;;;11.43;6.30;;;;;;;14.87;100.00;96226.03;4991398;28;20033;-79
2022/06/04 04:12:31;;;;;;;8.43;5.87;;;;;;;14.92;100.00;96218.31;4999515;28;20041;-79
2022/06/04 04:14:57;;;;;;;7.97;5.77;;;;;;;15.05;100.00;96213.19;5015220;28;20189;-78
2022/06/04 04:17:23;;;;;;;10.40;6.07;;;;;;;15.15;100.00;96226.94;4997462;28;20038;-78
2022/06/04 04:19:51;;;;;;;9.63;5.97;;;;;;;15.11;100.00;96238.91;5007980;28;20116;-79
2022/06/04 04:22:18;;;;;;;7.23;5.53;;;;;;;15.20;100.00;96243.09;4995879;28;20143;-79
2022/06/04 04:24:44;;;;;;;7.77;5.60;;;;;;;15.16;100.00;96241.84;4986979;28;20034;-78
2022/06/04 04:27:11;;;;;;;7.23;5.33;;;;;;;15.25;100.00;96235.38;5023590;28;20030;-78
2022/06/04 04:29:37;;;;;;;7.38;5.28;;;;;;;15.38;100.00;96233.91;5003012;28;20044;-78
2022/06/04 04:32:04;;;;;;;9.20;5.27;;;;;;;15.51;100.00;96239.31;5004702;28;20054;-78
2022/06/04 04:34:30;;;;;;;7.00;5.10;;;;;;;15.66;100.00;96241.88;5009520;28;20038;-78
2022/06/04 04:36:55;;;;;;;9.43;5.27;;;;;;;15.87;100.00;96241.91;4995300;28;20026;-78
2022/06/04 04:39:21;;;;;;;7.45;4.55;;;;;;;16.08;100.00;96234.91;5005692;28;20121;-78
2022/06/04 04:41:47;;;;;;;8.32;5.15;;;;;;;16.23;100.00;96233.81;4995367;28;20941;-78
2022/06/04 04:44:12;;;;;;;10.27;5.40;;;;;;;16.44;100.00;96229.44;4987057;28;20037;-78
2022/06/04 04:46:38;;;;;;;8.70;5.43;;;;;;;16.42;100.00;96226.16;5000968;28;20522;-78
2022/06/04 04:49:04;;;;;;;8.88;5.70;;;;;;;16.66;100.00;96223.00;4999135;28;20132;-78
2022/06/04 04:51:30;;;;;;;16.67;13.30;;;;;;;16.66;100.00;96222.19;4999265;28;20052;-78
2022/06/04 04:53:56;;;;;;;10.48;7.95;;;;;;;16.75;100.00;96221.03;5003403;28;20136;-78
2022/06/04 04:56:24;;;;;;;7.57;4.90;;;;;;;16.52;100.00;96221.28;5005759;28;20105;-79
2022/06/04 04:58:50;;;;;;;9.75;5.25;;;;;;;16.12;100.00;96226.38;5011177;28;20030;-78
2022/06/04 05:01:25;;;;;;;8.48;4.80;;;;;;;16.39;100.00;96221.22;5027076;28;20037;-78
2022/06/04 05:03:52;;;;;;;7.65;5.18;;;;;;;16.46;100.00;96222.94;5007588;28;20106;-78
2022/06/04 05:06:19;;;;;;;7.32;5.38;;;;;;;16.72;100.00;96221.41;5018338;28;20034;-78
2022/06/04 05:08:48;;;;;;;7.38;5.30;;;;;;;16.80;100.00;96215.13;5003503;28;20089;-80
2022/06/04 05:11:17;;;;;;;6.45;4.60;;;;;;;17.08;100.00;96213.19;5001453;28;20395;-78
2022/06/04 05:13:49;;;;;;;6.88;5.13;;;;;;;17.22;100.00;96224.66;5007086;28;20398;-78
2022/06/04 05:16:18;;;;;;;7.28;5.20;;;;;;;17.20;100.00;96224.88;5012423;28;20042;-78
2022/06/04 05:18:44;;;;;;;6.88;4.43;;;;;;;17.36;100.00;96220.19;5010198;28;20041;-79
2022/06/04 05:21:19;;;;;;;9.52;5.05;;;;;;;17.57;100.00;96227.16;5007654;28;20408;-78
2022/06/04 05:23:44;;;;;;;7.90;5.07;;;;;;;17.61;100.00;96218.59;5026133;28;20095;-80
2022/06/04 05:26:10;;;;;;;5.93;4.35;;;;;;;17.84;100.00;96209.41;5010039;28;20305;-78
2022/06/04 05:28:36;;;;;;;9.48;4.93;;;;;;;18.18;100.00;96212.88;5015422;28;20033;-78
2022/06/04 05:31:02;;;;;;;6.72;4.75;;;;;;;18.38;100.00;96205.66;5013542;28;20072;-78
2022/06/04 05:33:28;;;;;;;6.20;5.05;;;;;;;18.47;100.00;96208.91;5018745;28;20474;-78
2022/06/04 05:35:54;;;;;;;10.25;5.82;;;;;;;18.62;100.00;96217.47;4998971;28;20058;-79
2022/06/04 05:38:19;;;;;;;8.98;5.10;;;;;;;18.83;100.00;96213.72;4997579;28;20038;-78
2022/06/04 05:40:45;;;;;;;6.93;4.60;;;;;;;19.01;100.00;96213.03;5015600;28;20033;-79
2022/06/04 05:43:11;;;;;;;5.13;4.05;;;;;;;19.32;100.00;96198.91;5011055;28;20145;-77
2022/06/04 05:45:36;;;;;;;7.15;5.07;;;;;;;19.87;100.00;96193.00;5027527;28;20152;-78
2022/06/04 05:48:02;;;;;;;7.63;4.85;;;;;;;19.74;100.00;96199.25;5011822;28;20038;-78
2022/06/04 05:50:28;;;;;;;7.55;5.72;;;;;;;19.53;100.00;96195.91;5008418;28;20030;-78
2022/06/04 05:52:54;;;;;;;6.50;4.90;;;;;;;19.65;100.00;96205.88;5011056;28;20037;-79
2022/06/04 05:55:19;;;;;;;7.35;4.97;;;;;;;19.95;100.00;96212.22;5018844;28;20446;-78
2022/06/04 05:57:45;;;;;;;7.97;5.05;;;;;;;19.92;100.00;96207.31;5012582;28;20502;-78
2022/06/04 06:00:12;;;;;;;7.28;4.85;;;;;;;19.94;100.00;96205.25;5028165;28;20038;-77
2022/06/04 06:02:41;;;;;;;7.70;4.50;;;;;;;19.74;100.00;96215.25;5019792;28;20056;-78
2022/06/04 06:05:07;;;;;;;7.70;4.85;;;;;;;19.34;100.00;96226.16;5000852;28;20476;-79
2022/06/04 06:07:33;;;;;;;7.70;4.40;;;;;;;19.36;100.00;96233.97;5005983;28;20077;-78
2022/06/04 06:09:59;;;;;;;6.18;4.40;;;;;;;19.34;100.00;96231.50;5007067;28;20034;-79
2022/06/04 06:12:24;;;;;;;6.78;4.30;;;;;;;19.36;100.00;96244.63;5002550;28;20139;-78
2022/06/04 06:14:50;;;;;;;5.63;4.03;;;;;;;19.17;100.00;96255.19;5002160;28;20041;-78
2022/06/04 06:17:16;;;;;;;9.70;4.40;;;;;;;19.10;100.00;96262.41;4998577;28;20045;-78
2022/06/04 06:19:42;;;;;;;7.78;4.70;;;;;;;18.81;100.00;96275.22;5002439;28;20126;-78
2022/06/04 06:22:07;;;;;;;6.78;4.93;;;;;;;18.94;100.00;96285.00;5016226;28;20049;-79
2022/06/04 06:24:33;;;;;;;6.57;4.03;;;;;;;18.99;100.00;96293.19;5022526;28;20033;-79
2022/06/04 06:27:02;;;;;;;6.75;4.05;;;;;;;19.02;100.00;96286.63;5015632;28;20029;-78
2022/06/04 06:29:31;;;;;;;6.70;4.95;;;;;;;18.95;100.00;96294.66;5010217;28;20495;-77
2022/06/04 06:31:58;;;;;;;7.82;4.53;;;;;;;19.08;100.00;96294.59;5008228;28;20088;-78
2022/06/04 06:34:24;;;;;;;11.05;5.35;;;;;;;19.13;100.00;96298.47;4988593;28;20137;-78
2022/06/04 06:36:50;;;;;;;10.77;5.40;;;;;;;19.23;100.00;96299.66;5005845;28;20403;-78
2022/06/04 06:39:17;;;;;;;6.10;4.32;;;;;;;19.14;100.00;96305.44;5008147;28;20037;-78
2022/06/04 06:41:42;;;;;;;7.15;4.30;;;;;;;19.10;100.00;96304.22;5008768;28;20037;-78
2022/06/04 06:44:10;;;;;;;7.35;4.82;;;;;;;19.10;100.00;96301.56;4982153;28;20033;-78
2022/06/04 06:46:40;;;;;;;9.88;5.03;;;;;;;19.18;100.00;96309.31;4997971;28;20034;-78
2022/06/04 06:49:11;;;;;;;6.90;4.70;;;;;;;19.00;100.00;96312.66;5006812;28;20029;-78
2022/06/04 06:51:42;;;;;;;6.72;4.75;;;;;;;19.22;100.00;96313.22;5016410;28;20438;-78
2022/06/04 06:54:08;;;;;;;5.90;4.13;;;;;;;19.20;100.00;96316.06;4991552;28;20038;-78
2022/06/04 06:56:38;;;;;;;10.25;4.53;;;;;;;19.15;100.00;96339.91;5014558;28;20088;-79
2022/06/04 06:59:05;;;;;;;6.80;4.90;;;;;;;19.21;100.00;96359.53;4999794;28;20089;-78
2022/06/04 07:01:31;;;;;;;6.57;4.60;;;;;;;19.18;100.00;96375.97;5009765;28;20034;-78
2022/06/04 07:03:58;;;;;;;10.63;4.93;;;;;;;19.07;100.00;96378.25;4999498;28;20030;-78
2022/06/04 07:06:45;;;;;;;8.05;4.90;;;;;;;18.96;100.00;96389.56;5023647;28;20101;-78
2022/06/04 07:09:35;;;;;;;7.93;5.10;;;;;;;18.86;100.00;96410.47;4999961;28;20031;-78
2022/06/04 07:12:02;;;;;;;9.52;5.78;;;;;;;18.57;100.00;96401.03;4997895;28;20109;-77
2022/06/04 07:14:28;;;;;;;7.68;5.28;;;;;;;18.35;100.00;96411.91;5015285;28;20026;-78
2022/06/04 07:16:55;;;;;;;6.90;4.82;;;;;;;18.24;100.00;96411.66;5009402;28;20034;-79
2022/06/04 07:19:23;;;;;;;7.20;5.75;;;;;;;18.02;100.00;96414.50;5008203;28;20554;-80
2022/06/04 07:21:50;;;;;;;9.82;6.05;;;;;;;18.16;100.00;96422.53;5007868;28;20037;-80
2022/06/04 07:24:16;;;;;;;7.72;5.18;;;;;;;18.20;100.00;96421.09;5013733;28;20049;-80
2022/06/04 07:26:42;;;;;;;12.05;6.45;;;;;;;18.13;100.00;96427.22;5009264;28;20040;-79
2022/06/04 07:29:09;;;;;;;7.65;5.53;;;;;;;18.13;100.00;96415.75;5018626;28;20046;-80
2022/06/04 07:31:35;;;;;;;8.13;6.03;;;;;;;18.08;100.00;96411.03;5020744;28;20046;-80
2022/06/04 07:34:01;;;;;;;8.20;5.00;;;;;;;17.94;100.00;96416.53;5009090;28;20071;-79
2022/06/04 07:36:34;;;;;;;7.90;5.18;;;;;;;17.94;100.00;96414.69;4997051;28;20037;-78
2022/06/04 07:39:01;;;;;;;7.35;5.10;;;;;;;17.98;100.00;96404.47;5012037;28;20062;-79
2022/06/04 07:41:36;;;;;;;9.65;5.63;;;;;;;18.08;100.00;96403.06;5010640;28;20112;-78
2022/06/04 07:44:05;;;;;;;10.60;6.93;;;;;;;17.86;100.00;96398.91;5009287;28;20072;-81
2022/06/04 07:46:31;;;;;;;11.23;8.40;;;;;;;18.08;100.00;96383.63;4994120;28;20030;-78
2022/06/04 07:49:03;;;;;;;12.30;9.68;;;;;;;18.17;100.00;96353.09;5001487;28;20022;-78
2022/06/04 07:51:30;;;;;;;9.90;6.28;;;;;;;18.21;100.00;96321.56;4997472;28;20061;-79
2022/06/04 07:53:56;;;;;;;8.93;5.95;;;;;;;18.11;100.00;96284.75;5034612;28;20040;-79
2022/06/04 07:56:23;;;;;;;8.43;6.57;;;;;;;18.14;100.00;96287.81;5000871;28;20026;-80
2022/06/04 07:58:49;;;;;;;9.25;6.05;;;;;;;18.05;100.00;96266.91;5023398;28;20034;-79
2022/06/04 08:01:17;;;;;;;12.68;6.47;;;;;;;18.10;100.00;96278.56;5008480;28;20538;-80
2022/06/04 08:03:44;;;;;;;9.05;6.47;;;;;;;17.99;100.00;96281.84;5013014;28;20034;-80
2022/06/04 08:06:13;;;;;;;8.65;6.40;;;;;;;17.84;100.00;96267.91;5006589;28;20030;-79
2022/06/04 08:08:39;;;;;;;7.40;5.97;;;;;;;17.90;100.00;96264.44;5011030;28;20065;-79
2022/06/04 08:11:30;;;;;;;9.98;7.13;;;;;;;18.37;100.00;96284.69;4993414;28;20466;-80
2022/06/04 08:13:51;;;;;;;9.75;8.25;;;;;;;18.81;100.00;96287.72;5004030;28;20058;-79
2022/06/04 08:16:18;;;;;;;8.35;6.50;;;;;;;18.44;100.00;96291.84;5015541;28;20046;-80
2022/06/04 08:18:44;;;;;;;14.10;11.68;;;;;;;18.91;100.00;96282.75;5001167;28;20535;-78
2022/06/04 08:21:09;;;;;;;10.80;7.18;;;;;;;19.47;100.00;96287.44;5006455;28;20149;-79
2022/06/04 08:23:36;;;;;;;10.13;6.40;;;;;;;19.82;100.00;96286.22;5007263;28;20035;-79
2022/06/04 08:26:01;;;;;;;7.65;5.70;;;;;;;20.21;100.00;96291.25;5008332;28;20579;-81
2022/06/04 08:28:27;;;;;;;8.73;5.72;;;;;;;20.33;100.00;96299.38;5024295;28;20026;-79
2022/06/04 08:31:07;;;;;;;7.57;5.65;;;;;;;20.17;100.00;96300.75;5009426;28;20117;-79
2022/06/04 08:33:33;;;;;;;6.63;5.22;;;;;;;19.98;100.00;96297.19;5008451;28;20029;-79
2022/06/04 08:35:59;;;;;;;11.32;5.75;;;;;;;19.84;100.00;96301.00;5012884;28;20479;-79
2022/06/04 08:38:24;;;;;;;8.32;6.25;;;;;;;19.90;100.00;96297.47;5006674;28;20044;-79
2022/06/04 08:40:55;;;;;;;7.25;5.63;;;;;;;19.91;100.00;96290.25;5007325;28;20038;-78
2022/06/04 08:43:29;;;;;;;13.95;11.23;;;;;;;21.11;100.00;96285.44;4998799;28;20034;-79
2022/06/04 08:45:55;;;;;;;11.18;6.50;;;;;;;20.94;100.00;96290.56;5003044;28;20119;-79
2022/06/04 08:48:35;;;;;;;7.18;5.70;;;;;;;21.16;100.00;96298.97;4990190;28;20060;-79
2022/06/04 08:51:03;;;;;;;8.48;5.10;;;;;;;21.24;100.00;96321.91;5007666;28;20383;-79
2022/06/04 08:53:30;;;;;;;7.32;6.38;;;;;;;21.13;100.00;96336.03;4973855;28;20487;-79
2022/06/04 08:59:19;;;;;;;8.52;5.90;;;;;;;21.14;100.00;96343.81;4987966;28;20488;-79
2022/06/04 09:01:53;;;;;;;6.30;5.18;;;;;;;21.38;100.00;96336.78;5006644;28;20478;-79
2022/06/04 09:04:38;;;;;;;8.60;6.40;;;;;;;22.04;100.00;96329.72;4997518;28;20041;-79
2022/06/04 09:07:27;;;;;;;8.25;5.03;;;;;;;22.61;100.00;96317.72;4987202;28;20042;-79
2022/06/04 09:10:13;;;;;;;7.45;5.43;;;;;;;22.07;100.00;96326.59;5003282;28;20522;-78
2022/06/04 09:12:48;;;;;;;7.47;5.25;;;;;;;22.46;100.00;96323.50;5007982;28;20092;-79
2022/06/04 09:15:13;;;;;;;8.95;5.43;;;;;;;22.22;100.00;96326.16;5000309;28;20038;-78
2022/06/04 09:17:44;;;;;;;7.88;5.88;;;;;;;21.46;100.00;96332.16;5001918;28;20026;-79
2022/06/04 09:20:15;;;;;;;9.48;5.45;;;;;;;22.77;100.00;96323.19;5008712;28;20565;-79
2022/06/04 09:22:43;;;;;;;7.03;5.25;;;;;;;23.52;100.00;96324.22;5000779;28;20034;-81
2022/06/04 09:25:14;;;;;;;7.20;5.07;;;;;;;24.39;100.00;96318.53;5005061;28;20033;-78
2022/06/04 09:27:44;;;;;;;6.22;4.90;;;;;;;24.31;100.00;96328.88;5013361;28;20038;-80
2022/06/04 09:30:26;;;;;;;6.72;5.03;;;;;;;24.38;100.00;96329.53;5009101;28;20030;-79
2022/06/04 09:33:24;;;;;;;7.43;5.07;;;;;;;24.19;100.00;96324.41;5017253;28;20033;-79
2022/06/04 09:35:54;;;;;;;7.13;5.25;;;;;;;23.66;100.00;96330.13;5019865;28;20030;-78
2022/06/04 09:38:30;;;;;;;6.70;4.68;;;;;;;23.28;100.00;96343.06;5006506;28;20040;-78
2022/06/04 09:41:19;;;;;;;9.00;5.00;;;;;;;24.29;100.00;96325.63;5014295;28;20026;-78
2022/06/04 09:43:46;;;;;;;7.63;5.40;;;;;;;24.26;99.99;96334.19;5024101;28;20394;-78
2022/06/04 09:46:13;;;;;;;7.50;4.88;;;;;;;23.96;100.00;96340.66;5030981;28;20168;-78
2022/06/04 09:48:49;;;;;;;7.07;5.07;;;;;;;24.72;96.79;96335.75;5030443;28;20072;-79
2022/06/04 09:51:21;;;;;;;7.75;5.00;;;;;;;25.36;90.84;96330.72;5029199;28;20056;-78
2022/06/04 09:53:59;;;;;;;6.43;4.80;;;;;;;25.70;84.73;96335.16;5011669;28;20137;-79
2022/06/04 09:56:49;;;;;;;6.45;4.75;;;;;;;25.51;84.28;96348.94;5011494;28;20030;-79
2022/06/04 09:59:25;;;;;;;6.65;4.80;;;;;;;24.15;96.53;96354.69;5014633;28;20101;-78
2022/06/04 10:02:01;;;;;;;7.28;4.70;;;;;;;23.80;93.45;96355.66;5020230;28;20048;-79
2022/06/04 10:04:36;;;;;;;6.28;4.68;;;;;;;24.23;94.18;96338.16;5014311;28;20037;-79
2022/06/04 10:07:11;;;;;;;8.25;5.38;;;;;;;23.49;100.00;96348.84;5017425;28;20115;-78
2022/06/04 10:09:57;;;;;;;6.85;5.40;;;;;;;24.14;99.51;96348.47;5004214;28;20399;-78
2022/06/04 10:15:41;;;;;;;12.43;11.23;;;;;;;25.01;92.76;96339.09;5026458;28;20030;-78
2022/06/04 10:18:16;;;;;;;7.55;5.35;;;;;;;25.34;91.38;96345.50;5011297;28;20434;-78
2022/06/04 10:20:56;;;;;;;10.10;6.32;;;;;;;25.53;92.15;96344.13;4994901;28;20133;-78
2022/06/04 10:23:22;;;;;;;8.20;4.40;;;;;;;25.39;87.68;96340.19;5020448;28;20065;-77
2022/06/04 10:26:20;;;;;;;7.75;5.47;;;;;;;26.18;84.01;96346.97;5013142;28;20022;-80
2022/06/04 10:29:10;;;;;;;7.53;5.22;;;;;;;28.12;73.31;96348.13;5022435;28;20061;-79
2022/06/04 10:31:48;;;;;;;5.93;4.03;;;;;;;28.20;72.93;96336.75;4992526;28;20045;-78
2022/06/04 10:34:30;;;;;;;5.22;3.85;;;;;;;28.40;65.82;96349.53;5006354;28;20044;-78
2022/06/04 10:37:17;;;;;;;5.82;3.83;;;;;;;28.02;68.13;96345.41;5026496;28;20030;-78
2022/06/04 10:39:59;;;;;;;9.48;5.65;;;;;;;26.62;77.87;96363.03;5026564;28;20088;-79
2022/06/04 10:42:35;;;;;;;4.50;3.15;;;;;;;26.22;79.40;96378.56;5002208;28;20557;-79
2022/06/04 10:45:34;;;;;;;5.97;3.63;;;;;;;25.78;83.28;96385.88;5017377;28;20045;-79
2022/06/04 10:48:00;;;;;;;7.13;5.68;;;;;;;25.31;85.21;96383.69;5017258;28;20054;-79
2022/06/04 10:51:25;;;;;;;7.03;5.00;;;;;;;24.77;88.92;96386.91;5017652;28;20120;-79
2022/06/04 10:53:44;;;;;;;5.03;3.83;;;;;;;23.97;92.64;96396.00;5001112;28;20038;-79
2022/06/04 10:56:16;;;;;;;8.63;5.65;;;;;;;23.79;100.00;96386.25;5001226;28;20057;-79
2022/06/04 10:58:51;;;;;;;6.07;4.25;;;;;;;23.46;100.00;96376.16;4996154;28;20049;-78
2022/06/04 11:01:39;;;;;;;7.15;5.28;;;;;;;23.13;100.00;96382.16;5036415;28;20204;-79
2022/06/04 11:04:43;;;;;;;7.38;4.68;;;;;;;23.43;100.00;96392.75;5021472;28;20046;-79
2022/06/04 11:07:36;;;;;;;7.65;5.10;;;;;;;23.50;100.00;96393.44;5007020;28;20073;-80
2022/06/04 11:10:17;;;;;;;8.35;6.28;;;;;;;23.42;100.00;96385.75;5006712;28;20041;-79
2022/06/04 11:12:59;;;;;;;8.82;6.18;;;;;;;23.22;100.00;96378.91;5006893;28;20037;-79
2022/06/04 11:15:29;;;;;;;7.07;5.50;;;;;;;23.38;100.00;96373.88;5017673;28;20026;-80
2022/06/04 11:17:58;;;;;;;5.82;5.20;;;;;;;23.58;100.00;96390.38;5017728;28;20121;-79
2022/06/04 11:20:31;;;;;;;7.20;5.15;;;;;;;23.82;100.00;96379.59;5022961;28;20639;-80
2022/06/04 11:23:24;;;;;;;7.25;5.28;;;;;;;24.08;100.00;96384.41;5003028;28;20117;-79
2022/06/04 11:25:53;;;;;;;;;;;;;;;23.50;100.00;96398.78;5013801;28;20034;-79
2022/06/04 11:28:26;;;;;;;9.55;7.00;;;;;;;23.37;100.00;96397.19;5019310;28;19910;-80
2022/06/04 11:31:30;;;;;;;7.38;4.93;;;;;;;23.32;100.00;96397.09;5010611;28;20040;-79
2022/06/04 11:34:22;;;;;;;7.05;4.30;;;;;;;23.16;100.00;96398.63;4970629;28;20065;-80
2022/06/04 11:37:01;;;;;;;5.93;4.97;;;;;;;22.93;100.00;96404.00;4991376;28;20049;-79
2022/06/04 11:39:59;;;;;;;5.75;4.53;;;;;;;22.42;100.00;96413.47;5027255;28;20057;-79
2022/06/04 11:42:39;;;;;;;9.35;7.72;;;;;;;21.50;100.00;96422.47;5005408;28;20096;-79
2022/06/04 11:45:26;;;;;;;8.68;6.82;;;;;;;21.35;100.00;96427.38;5003110;28;20038;-79
2022/06/04 11:48:01;;;;;;;8.00;6.07;;;;;;;21.00;100.00;96424.41;5019261;28;20025;-80
2022/06/04 11:50:50;;;;;;;10.45;6.05;;;;;;;20.71;100.00;96430.19;5016586;28;20038;-79
2022/06/04 11:53:25;;;;;;;9.18;5.82;;;;;;;20.53;100.00;96440.03;4991255;28;20061;-79
2022/06/04 11:55:57;;;;;;;7.43;4.50;;;;;;;20.58;100.00;96440.19;4997388;28;20034;-78
2022/06/04 11:58:54;;;;;;;7.60;4.00;;;;;;;20.55;100.00;96445.94;4984046;28;20034;-78